aviador You're here:

GMTA Decoded Metar

AL HOCIEMA in MOROCCO
Report Time2018-07-22 16:00:00
UTC Time2018-07-22 16:30:15
Flight Rules vfr VFR
Wind320° at 08 kt
W.Decomp.*RWY 35: 7.0 kt HW 3.9 kt LCW
W.Rank320° ranks 5
Current wind is above 320° avg. (7.9)
Visibility9999 m
Phenomena:N/A
Clouds:N/A
Expected CloudBase > 2,400 ft AGL from Temp-Dew spread
CeilingNone
Temp26°C (ISA +11)
Dew Point20°C (70% RH)
QNH1013 hPa
Density Alt1,637 ft
Elevation46 ft
Report Wrong Elevation
Raw Report
GMTA 221600Z 32008KT CAVOK 26/20 Q1013 NOSIG=

Extra information for GMTA:More info

Metar Taf Metar & Taf Last 4 Metars F.Rules Stats Wind Profile Meteogram Temp Stats Airport Information Weather charts Add Link Nearby VenuesMetar ALERT Operation Metar Decoded Social comments